sensor_id;sensor_type;location;lat;lon;timestamp;P1;durP1;ratioP1;P2;durP2;ratioP2
49910;SDS011;35803;53.096;5.844;2023-04-21T00:02:24;26.60;;;14.75;;
49910;SDS011;35803;53.096;5.844;2023-04-21T00:04:51;26.08;;;13.98;;
49910;SDS011;35803;53.096;5.844;2023-04-21T00:07:18;28.05;;;14.23;;
49910;SDS011;35803;53.096;5.844;2023-04-21T00:09:44;25.40;;;14.05;;
49910;SDS011;35803;53.096;5.844;2023-04-21T00:12:17;27.40;;;15.23;;
49910;SDS011;35803;53.096;5.844;2023-04-21T00:14:44;25.92;;;14.90;;
49910;SDS011;35803;53.096;5.844;2023-04-21T00:17:09;26.33;;;14.27;;
49910;SDS011;35803;53.096;5.844;2023-04-21T00:19:35;27.90;;;14.48;;
49910;SDS011;35803;53.096;5.844;2023-04-21T00:22:00;25.70;;;14.00;;
49910;SDS011;35803;53.096;5.844;2023-04-21T00:24:27;26.75;;;14.45;;
49910;SDS011;35803;53.096;5.844;2023-04-21T00:26:53;28.08;;;15.50;;
49910;SDS011;35803;53.096;5.844;2023-04-21T00:29:18;25.38;;;14.48;;
49910;SDS011;35803;53.096;5.844;2023-04-21T00:31:44;25.73;;;14.52;;
49910;SDS011;35803;53.096;5.844;2023-04-21T00:34:09;24.30;;;14.18;;
49910;SDS011;35803;53.096;5.844;2023-04-21T00:36:35;25.50;;;13.90;;
49910;SDS011;35803;53.096;5.844;2023-04-21T00:39:00;28.40;;;14.45;;
49910;SDS011;35803;53.096;5.844;2023-04-21T00:41:27;22.83;;;12.95;;
49910;SDS011;35803;53.096;5.844;2023-04-21T00:44:03;25.58;;;13.60;;
49910;SDS011;35803;53.096;5.844;2023-04-21T00:46:29;25.92;;;13.82;;
49910;SDS011;35803;53.096;5.844;2023-04-21T00:48:55;23.35;;;13.93;;
49910;SDS011;35803;53.096;5.844;2023-04-21T00:51:21;25.75;;;13.77;;
49910;SDS011;35803;53.096;5.844;2023-04-21T00:53:47;25.35;;;12.98;;
49910;SDS011;35803;53.096;5.844;2023-04-21T00:56:14;24.58;;;13.02;;
49910;SDS011;35803;53.096;5.844;2023-04-21T00:58:41;21.85;;;12.45;;
49910;SDS011;35803;53.096;5.844;2023-04-21T01:01:07;20.10;;;11.82;;
49910;SDS011;35803;53.096;5.844;2023-04-21T01:03:32;23.00;;;11.70;;
49910;SDS011;35803;53.096;5.844;2023-04-21T01:05:58;21.70;;;11.85;;
49910;SDS011;35803;53.096;5.844;2023-04-21T01:08:24;20.25;;;11.52;;
49910;SDS011;35803;53.096;5.844;2023-04-21T01:10:53;23.27;;;12.02;;
49910;SDS011;35803;53.096;5.844;2023-04-21T01:13:19;22.67;;;12.07;;
49910;SDS011;35803;53.096;5.844;2023-04-21T01:15:47;24.88;;;11.75;;
49910;SDS011;35803;53.096;5.844;2023-04-21T01:18:13;22.30;;;11.63;;
49910;SDS011;35803;53.096;5.844;2023-04-21T01:20:39;22.33;;;11.70;;
49910;SDS011;35803;53.096;5.844;2023-04-21T01:23:05;21.83;;;11.60;;
49910;SDS011;35803;53.096;5.844;2023-04-21T01:25:31;20.63;;;10.93;;
49910;SDS011;35803;53.096;5.844;2023-04-21T01:27:57;21.10;;;12.50;;
49910;SDS011;35803;53.096;5.844;2023-04-21T01:30:23;21.02;;;11.13;;
49910;SDS011;35803;53.096;5.844;2023-04-21T01:32:49;22.40;;;12.15;;
49910;SDS011;35803;53.096;5.844;2023-04-21T01:35:14;20.10;;;11.77;;
49910;SDS011;35803;53.096;5.844;2023-04-21T01:37:40;20.40;;;11.63;;
49910;SDS011;35803;53.096;5.844;2023-04-21T01:40:06;20.00;;;12.02;;
49910;SDS011;35803;53.096;5.844;2023-04-21T01:42:34;19.73;;;11.68;;
49910;SDS011;35803;53.096;5.844;2023-04-21T01:45:07;18.90;;;12.40;;
49910;SDS011;35803;53.096;5.844;2023-04-21T01:47:33;21.73;;;11.07;;
49910;SDS011;35803;53.096;5.844;2023-04-21T01:49:59;20.63;;;11.00;;
49910;SDS011;35803;53.096;5.844;2023-04-21T01:52:25;21.55;;;11.40;;
49910;SDS011;35803;53.096;5.844;2023-04-21T01:54:50;18.85;;;11.63;;
49910;SDS011;35803;53.096;5.844;2023-04-21T01:57:16;23.40;;;11.38;;
49910;SDS011;35803;53.096;5.844;2023-04-21T01:59:42;20.10;;;11.38;;
49910;SDS011;35803;53.096;5.844;2023-04-21T02:02:08;23.25;;;11.52;;
49910;SDS011;35803;53.096;5.844;2023-04-21T02:04:34;22.58;;;11.82;;
49910;SDS011;35803;53.096;5.844;2023-04-21T02:07:00;20.15;;;11.10;;
49910;SDS011;35803;53.096;5.844;2023-04-21T02:09:26;21.40;;;12.38;;
49910;SDS011;35803;53.096;5.844;2023-04-21T02:11:51;18.02;;;11.07;;
49910;SDS011;35803;53.096;5.844;2023-04-21T02:14:17;21.38;;;12.13;;
49910;SDS011;35803;53.096;5.844;2023-04-21T02:16:42;19.33;;;11.55;;
49910;SDS011;35803;53.096;5.844;2023-04-21T02:19:08;21.00;;;12.32;;
49910;SDS011;35803;53.096;5.844;2023-04-21T02:21:34;20.30;;;11.48;;
49910;SDS011;35803;53.096;5.844;2023-04-21T02:23:59;19.52;;;11.63;;
49910;SDS011;35803;53.096;5.844;2023-04-21T02:26:25;21.10;;;12.35;;
49910;SDS011;35803;53.096;5.844;2023-04-21T02:28:50;19.15;;;12.13;;
49910;SDS011;35803;53.096;5.844;2023-04-21T02:31:17;21.85;;;12.68;;
49910;SDS011;35803;53.096;5.844;2023-04-21T02:33:43;20.33;;;11.45;;
49910;SDS011;35803;53.096;5.844;2023-04-21T02:36:09;20.08;;;11.57;;
49910;SDS011;35803;53.096;5.844;2023-04-21T02:38:34;22.23;;;12.20;;
49910;SDS011;35803;53.096;5.844;2023-04-21T02:41:00;25.13;;;12.13;;
49910;SDS011;35803;53.096;5.844;2023-04-21T02:43:25;21.55;;;11.73;;
49910;SDS011;35803;53.096;5.844;2023-04-21T02:45:51;21.27;;;12.13;;
49910;SDS011;35803;53.096;5.844;2023-04-21T02:48:16;21.27;;;11.75;;
49910;SDS011;35803;53.096;5.844;2023-04-21T02:50:50;18.73;;;12.00;;
49910;SDS011;35803;53.096;5.844;2023-04-21T02:53:20;22.05;;;10.93;;
49910;SDS011;35803;53.096;5.844;2023-04-21T02:55:46;23.92;;;11.07;;
49910;SDS011;35803;53.096;5.844;2023-04-21T02:58:11;19.27;;;10.75;;
49910;SDS011;35803;53.096;5.844;2023-04-21T03:00:37;21.98;;;11.35;;
49910;SDS011;35803;53.096;5.844;2023-04-21T03:03:02;23.95;;;11.77;;
49910;SDS011;35803;53.096;5.844;2023-04-21T03:05:28;20.92;;;11.18;;
49910;SDS011;35803;53.096;5.844;2023-04-21T03:07:54;20.85;;;10.45;;
49910;SDS011;35803;53.096;5.844;2023-04-21T03:10:19;24.50;;;11.57;;
49910;SDS011;35803;53.096;5.844;2023-04-21T03:12:45;21.95;;;11.20;;
49910;SDS011;35803;53.096;5.844;2023-04-21T03:15:10;24.05;;;11.15;;
49910;SDS011;35803;53.096;5.844;2023-04-21T03:17:38;19.17;;;10.73;;
49910;SDS011;35803;53.096;5.844;2023-04-21T03:20:07;23.45;;;10.80;;
49910;SDS011;35803;53.096;5.844;2023-04-21T03:22:34;21.80;;;12.05;;
49910;SDS011;35803;53.096;5.844;2023-04-21T03:25:00;22.60;;;12.02;;
49910;SDS011;35803;53.096;5.844;2023-04-21T03:27:25;23.40;;;10.38;;
49910;SDS011;35803;53.096;5.844;2023-04-21T03:29:51;20.48;;;11.80;;
49910;SDS011;35803;53.096;5.844;2023-04-21T03:32:16;18.95;;;10.85;;
49910;SDS011;35803;53.096;5.844;2023-04-21T03:34:42;21.33;;;11.50;;
49910;SDS011;35803;53.096;5.844;2023-04-21T03:37:07;20.60;;;10.70;;
49910;SDS011;35803;53.096;5.844;2023-04-21T03:39:33;20.80;;;11.20;;
49910;SDS011;35803;53.096;5.844;2023-04-21T03:41:58;19.88;;;10.65;;
49910;SDS011;35803;53.096;5.844;2023-04-21T03:44:24;19.15;;;11.90;;
49910;SDS011;35803;53.096;5.844;2023-04-21T03:46:51;21.17;;;11.85;;
49910;SDS011;35803;53.096;5.844;2023-04-21T03:49:18;18.00;;;10.73;;
49910;SDS011;35803;53.096;5.844;2023-04-21T03:51:43;24.48;;;11.43;;
49910;SDS011;35803;53.096;5.844;2023-04-21T03:54:09;17.20;;;10.70;;
49910;SDS011;35803;53.096;5.844;2023-04-21T03:56:35;18.42;;;10.38;;
49910;SDS011;35803;53.096;5.844;2023-04-21T03:59:00;17.92;;;10.07;;
49910;SDS011;35803;53.096;5.844;2023-04-21T04:01:26;19.05;;;10.80;;
49910;SDS011;35803;53.096;5.844;2023-04-21T04:03:51;20.67;;;11.50;;
49910;SDS011;35803;53.096;5.844;2023-04-21T04:06:17;23.17;;;12.10;;
49910;SDS011;35803;53.096;5.844;2023-04-21T04:08:43;19.65;;;10.27;;
49910;SDS011;35803;53.096;5.844;2023-04-21T04:11:08;16.58;;;10.18;;
49910;SDS011;35803;53.096;5.844;2023-04-21T04:13:34;19.25;;;10.18;;
49910;SDS011;35803;53.096;5.844;2023-04-21T04:16:00;19.65;;;11.20;;
49910;SDS011;35803;53.096;5.844;2023-04-21T04:18:25;18.02;;;11.07;;
49910;SDS011;35803;53.096;5.844;2023-04-21T04:20:51;17.30;;;10.35;;
49910;SDS011;35803;53.096;5.844;2023-04-21T04:23:16;20.95;;;10.20;;
49910;SDS011;35803;53.096;5.844;2023-04-21T04:25:42;16.25;;;10.60;;
49910;SDS011;35803;53.096;5.844;2023-04-21T04:28:07;18.52;;;9.90;;
49910;SDS011;35803;53.096;5.844;2023-04-21T04:30:33;17.70;;;10.35;;
49910;SDS011;35803;53.096;5.844;2023-04-21T04:32:59;18.02;;;10.43;;
49910;SDS011;35803;53.096;5.844;2023-04-21T04:35:25;21.17;;;10.75;;
49910;SDS011;35803;53.096;5.844;2023-04-21T04:37:51;18.90;;;9.35;;
49910;SDS011;35803;53.096;5.844;2023-04-21T04:40:17;17.38;;;9.90;;
49910;SDS011;35803;53.096;5.844;2023-04-21T04:42:44;18.15;;;9.63;;
49910;SDS011;35803;53.096;5.844;2023-04-21T04:45:11;19.17;;;10.43;;
49910;SDS011;35803;53.096;5.844;2023-04-21T04:47:38;17.02;;;10.10;;
49910;SDS011;35803;53.096;5.844;2023-04-21T04:50:04;18.92;;;10.10;;
49910;SDS011;35803;53.096;5.844;2023-04-21T04:52:30;17.38;;;10.40;;
49910;SDS011;35803;53.096;5.844;2023-04-21T04:54:56;18.40;;;10.07;;
49910;SDS011;35803;53.096;5.844;2023-04-21T04:57:22;16.23;;;9.18;;
49910;SDS011;35803;53.096;5.844;2023-04-21T04:59:48;18.15;;;10.23;;
49910;SDS011;35803;53.096;5.844;2023-04-21T05:02:13;19.95;;;9.68;;
49910;SDS011;35803;53.096;5.844;2023-04-21T05:04:39;16.63;;;9.45;;
49910;SDS011;35803;53.096;5.844;2023-04-21T05:07:04;14.25;;;9.18;;
49910;SDS011;35803;53.096;5.844;2023-04-21T05:09:32;17.95;;;10.20;;
49910;SDS011;35803;53.096;5.844;2023-04-21T05:11:58;16.05;;;9.48;;
49910;SDS011;35803;53.096;5.844;2023-04-21T05:14:25;16.25;;;9.73;;
49910;SDS011;35803;53.096;5.844;2023-04-21T05:16:51;16.63;;;9.95;;
49910;SDS011;35803;53.096;5.844;2023-04-21T05:19:16;16.45;;;8.98;;
49910;SDS011;35803;53.096;5.844;2023-04-21T05:21:42;16.08;;;9.77;;
49910;SDS011;35803;53.096;5.844;2023-04-21T05:24:08;15.25;;;8.95;;
49910;SDS011;35803;53.096;5.844;2023-04-21T05:26:33;17.50;;;9.82;;
49910;SDS011;35803;53.096;5.844;2023-04-21T05:28:59;15.00;;;9.18;;
49910;SDS011;35803;53.096;5.844;2023-04-21T05:31:24;15.85;;;8.73;;
49910;SDS011;35803;53.096;5.844;2023-04-21T05:33:50;14.32;;;8.82;;
49910;SDS011;35803;53.096;5.844;2023-04-21T05:36:16;17.25;;;9.35;;
49910;SDS011;35803;53.096;5.844;2023-04-21T05:38:41;16.42;;;8.98;;
49910;SDS011;35803;53.096;5.844;2023-04-21T05:41:07;15.23;;;9.27;;
49910;SDS011;35803;53.096;5.844;2023-04-21T05:43:33;16.10;;;8.80;;
49910;SDS011;35803;53.096;5.844;2023-04-21T05:45:59;13.80;;;8.75;;
49910;SDS011;35803;53.096;5.844;2023-04-21T05:48:25;16.42;;;8.63;;
49910;SDS011;35803;53.096;5.844;2023-04-21T05:50:50;14.57;;;8.82;;
49910;SDS011;35803;53.096;5.844;2023-04-21T05:53:16;15.80;;;8.93;;
49910;SDS011;35803;53.096;5.844;2023-04-21T05:55:42;18.70;;;9.65;;
49910;SDS011;35803;53.096;5.844;2023-04-21T05:58:07;15.85;;;8.63;;
49910;SDS011;35803;53.096;5.844;2023-04-21T06:00:33;15.88;;;8.35;;
49910;SDS011;35803;53.096;5.844;2023-04-21T06:02:58;16.80;;;9.27;;
49910;SDS011;35803;53.096;5.844;2023-04-21T06:05:24;12.40;;;8.18;;
49910;SDS011;35803;53.096;5.844;2023-04-21T06:07:50;12.98;;;8.90;;
49910;SDS011;35803;53.096;5.844;2023-04-21T06:10:16;11.60;;;7.63;;
49910;SDS011;35803;53.096;5.844;2023-04-21T06:12:41;12.50;;;7.88;;
49910;SDS011;35803;53.096;5.844;2023-04-21T06:15:07;13.38;;;7.60;;
49910;SDS011;35803;53.096;5.844;2023-04-21T06:17:33;15.85;;;8.45;;
49910;SDS011;35803;53.096;5.844;2023-04-21T06:19:59;12.82;;;8.27;;
49910;SDS011;35803;53.096;5.844;2023-04-21T06:22:24;15.32;;;8.63;;
49910;SDS011;35803;53.096;5.844;2023-04-21T06:24:50;17.83;;;8.60;;
49910;SDS011;35803;53.096;5.844;2023-04-21T06:27:16;13.32;;;7.43;;
49910;SDS011;35803;53.096;5.844;2023-04-21T06:29:41;14.23;;;8.32;;
49910;SDS011;35803;53.096;5.844;2023-04-21T06:32:07;13.20;;;7.63;;
49910;SDS011;35803;53.096;5.844;2023-04-21T06:34:33;16.85;;;8.27;;
49910;SDS011;35803;53.096;5.844;2023-04-21T06:36:59;12.75;;;7.80;;
49910;SDS011;35803;53.096;5.844;2023-04-21T06:39:25;14.85;;;8.43;;
49910;SDS011;35803;53.096;5.844;2023-04-21T06:41:51;13.30;;;8.05;;
49910;SDS011;35803;53.096;5.844;2023-04-21T06:44:16;14.20;;;8.18;;
49910;SDS011;35803;53.096;5.844;2023-04-21T06:46:42;12.13;;;8.10;;
49910;SDS011;35803;53.096;5.844;2023-04-21T06:49:07;13.05;;;7.60;;
49910;SDS011;35803;53.096;5.844;2023-04-21T06:51:33;12.18;;;7.82;;
49910;SDS011;35803;53.096;5.844;2023-04-21T06:53:59;15.93;;;8.02;;
49910;SDS011;35803;53.096;5.844;2023-04-21T06:56:25;13.60;;;7.60;;
49910;SDS011;35803;53.096;5.844;2023-04-21T06:58:51;11.90;;;8.43;;
49910;SDS011;35803;53.096;5.844;2023-04-21T07:01:17;13.73;;;7.75;;
49910;SDS011;35803;53.096;5.844;2023-04-21T07:03:43;12.55;;;8.02;;
49910;SDS011;35803;53.096;5.844;2023-04-21T07:06:08;12.50;;;7.72;;
49910;SDS011;35803;53.096;5.844;2023-04-21T07:08:35;13.48;;;7.70;;
49910;SDS011;35803;53.096;5.844;2023-04-21T07:11:01;13.32;;;7.63;;
49910;SDS011;35803;53.096;5.844;2023-04-21T07:13:26;12.57;;;7.55;;
49910;SDS011;35803;53.096;5.844;2023-04-21T07:15:52;11.57;;;7.75;;
49910;SDS011;35803;53.096;5.844;2023-04-21T07:18:17;14.52;;;7.90;;
49910;SDS011;35803;53.096;5.844;2023-04-21T07:20:43;14.38;;;8.07;;
49910;SDS011;35803;53.096;5.844;2023-04-21T07:23:08;11.23;;;7.15;;
49910;SDS011;35803;53.096;5.844;2023-04-21T07:25:34;13.43;;;7.40;;
49910;SDS011;35803;53.096;5.844;2023-04-21T07:28:00;13.88;;;7.93;;
49910;SDS011;35803;53.096;5.844;2023-04-21T07:30:27;13.23;;;7.72;;
49910;SDS011;35803;53.096;5.844;2023-04-21T07:32:54;11.02;;;7.13;;
49910;SDS011;35803;53.096;5.844;2023-04-21T07:35:20;12.93;;;7.35;;
49910;SDS011;35803;53.096;5.844;2023-04-21T07:37:45;11.52;;;7.25;;
49910;SDS011;35803;53.096;5.844;2023-04-21T07:40:11;12.15;;;7.65;;
49910;SDS011;35803;53.096;5.844;2023-04-21T07:42:37;11.82;;;7.30;;
49910;SDS011;35803;53.096;5.844;2023-04-21T07:45:03;11.68;;;7.20;;
49910;SDS011;35803;53.096;5.844;2023-04-21T07:47:29;15.15;;;8.00;;
49910;SDS011;35803;53.096;5.844;2023-04-21T07:49:55;13.55;;;7.65;;
49910;SDS011;35803;53.096;5.844;2023-04-21T07:52:20;17.00;;;8.02;;
49910;SDS011;35803;53.096;5.844;2023-04-21T07:54:46;13.20;;;7.38;;
49910;SDS011;35803;53.096;5.844;2023-04-21T07:57:11;13.05;;;7.65;;
49910;SDS011;35803;53.096;5.844;2023-04-21T07:59:37;11.98;;;7.78;;
49910;SDS011;35803;53.096;5.844;2023-04-21T08:02:02;14.77;;;7.57;;
49910;SDS011;35803;53.096;5.844;2023-04-21T08:04:28;12.50;;;8.10;;
49910;SDS011;35803;53.096;5.844;2023-04-21T08:06:53;10.95;;;7.00;;
49910;SDS011;35803;53.096;5.844;2023-04-21T08:09:19;11.07;;;7.90;;
49910;SDS011;35803;53.096;5.844;2023-04-21T08:11:45;13.52;;;7.82;;
49910;SDS011;35803;53.096;5.844;2023-04-21T08:14:11;11.98;;;7.40;;
49910;SDS011;35803;53.096;5.844;2023-04-21T08:16:37;11.85;;;6.82;;
49910;SDS011;35803;53.096;5.844;2023-04-21T08:19:05;10.98;;;7.45;;
49910;SDS011;35803;53.096;5.844;2023-04-21T08:21:31;12.27;;;6.93;;
49910;SDS011;35803;53.096;5.844;2023-04-21T08:23:57;13.63;;;7.25;;
49910;SDS011;35803;53.096;5.844;2023-04-21T08:26:23;13.52;;;7.93;;
49910;SDS011;35803;53.096;5.844;2023-04-21T08:28:49;13.63;;;8.15;;
49910;SDS011;35803;53.096;5.844;2023-04-21T08:31:17;10.73;;;6.90;;
49910;SDS011;35803;53.096;5.844;2023-04-21T08:33:43;11.38;;;7.28;;
49910;SDS011;35803;53.096;5.844;2023-04-21T08:36:09;12.73;;;7.43;;
49910;SDS011;35803;53.096;5.844;2023-04-21T08:38:35;12.45;;;7.22;;
49910;SDS011;35803;53.096;5.844;2023-04-21T08:41:06;11.57;;;7.40;;
49910;SDS011;35803;53.096;5.844;2023-04-21T08:43:32;12.45;;;7.82;;
49910;SDS011;35803;53.096;5.844;2023-04-21T08:45:58;14.95;;;7.68;;
49910;SDS011;35803;53.096;5.844;2023-04-21T08:48:24;12.50;;;7.10;;
49910;SDS011;35803;53.096;5.844;2023-04-21T08:50:50;10.57;;;7.38;;
49910;SDS011;35803;53.096;5.844;2023-04-21T08:53:16;12.43;;;7.43;;
49910;SDS011;35803;53.096;5.844;2023-04-21T08:55:42;11.80;;;7.15;;
49910;SDS011;35803;53.096;5.844;2023-04-21T08:58:08;12.95;;;7.38;;
49910;SDS011;35803;53.096;5.844;2023-04-21T09:00:37;14.13;;;7.50;;
49910;SDS011;35803;53.096;5.844;2023-04-21T09:03:03;12.52;;;7.40;;
49910;SDS011;35803;53.096;5.844;2023-04-21T09:05:32;15.50;;;7.70;;
49910;SDS011;35803;53.096;5.844;2023-04-21T09:13:16;13.32;;;7.10;;
49910;SDS011;35803;53.096;5.844;2023-04-21T09:15:43;11.13;;;7.90;;
49910;SDS011;35803;53.096;5.844;2023-04-21T09:18:14;13.68;;;7.47;;
49910;SDS011;35803;53.096;5.844;2023-04-21T09:20:41;12.07;;;7.25;;
49910;SDS011;35803;53.096;5.844;2023-04-21T09:23:08;11.77;;;7.60;;
49910;SDS011;35803;53.096;5.844;2023-04-21T09:25:40;11.00;;;7.35;;
49910;SDS011;35803;53.096;5.844;2023-04-21T09:28:10;12.93;;;7.40;;
49910;SDS011;35803;53.096;5.844;2023-04-21T09:30:37;11.23;;;7.50;;
49910;SDS011;35803;53.096;5.844;2023-04-21T09:33:05;12.30;;;7.57;;
49910;SDS011;35803;53.096;5.844;2023-04-21T09:35:34;11.90;;;7.55;;
49910;SDS011;35803;53.096;5.844;2023-04-21T09:38:00;13.85;;;7.35;;
49910;SDS011;35803;53.096;5.844;2023-04-21T09:40:28;11.02;;;6.93;;
49910;SDS011;35803;53.096;5.844;2023-04-21T09:42:56;13.60;;;7.25;;
49910;SDS011;35803;53.096;5.844;2023-04-21T09:45:25;11.77;;;7.00;;
49910;SDS011;35803;53.096;5.844;2023-04-21T09:47:54;9.65;;;6.90;;
49910;SDS011;35803;53.096;5.844;2023-04-21T09:50:25;10.90;;;6.35;;
49910;SDS011;35803;53.096;5.844;2023-04-21T09:52:52;12.95;;;7.53;;
49910;SDS011;35803;53.096;5.844;2023-04-21T09:55:21;11.68;;;7.03;;
49910;SDS011;35803;53.096;5.844;2023-04-21T09:57:51;10.70;;;7.17;;
49910;SDS011;35803;53.096;5.844;2023-04-21T10:00:17;10.80;;;6.70;;
49910;SDS011;35803;53.096;5.844;2023-04-21T10:02:43;9.75;;;6.90;;
49910;SDS011;35803;53.096;5.844;2023-04-21T10:05:12;12.45;;;7.18;;
49910;SDS011;35803;53.096;5.844;2023-04-21T10:07:38;10.73;;;6.63;;
49910;SDS011;35803;53.096;5.844;2023-04-21T10:10:13;12.45;;;7.32;;
49910;SDS011;35803;53.096;5.844;2023-04-21T10:12:42;12.15;;;7.30;;
49910;SDS011;35803;53.096;5.844;2023-04-21T10:15:27;10.73;;;6.82;;
49910;SDS011;35803;53.096;5.844;2023-04-21T10:18:10;14.90;;;6.60;;
49910;SDS011;35803;53.096;5.844;2023-04-21T10:20:54;10.85;;;6.85;;
49910;SDS011;35803;53.096;5.844;2023-04-21T10:23:25;9.50;;;5.93;;
49910;SDS011;35803;53.096;5.844;2023-04-21T10:25:50;12.60;;;7.00;;
49910;SDS011;35803;53.096;5.844;2023-04-21T10:28:19;11.30;;;6.93;;
49910;SDS011;35803;53.096;5.844;2023-04-21T10:30:45;10.05;;;7.05;;
49910;SDS011;35803;53.096;5.844;2023-04-21T10:33:10;12.43;;;7.30;;
49910;SDS011;35803;53.096;5.844;2023-04-21T10:38:35;9.90;;;6.70;;
49910;SDS011;35803;53.096;5.844;2023-04-21T10:43:59;11.30;;;6.75;;
49910;SDS011;35803;53.096;5.844;2023-04-21T10:46:37;15.27;;;7.30;;
49910;SDS011;35803;53.096;5.844;2023-04-21T10:49:05;8.98;;;6.68;;
49910;SDS011;35803;53.096;5.844;2023-04-21T10:54:24;10.77;;;6.53;;
49910;SDS011;35803;53.096;5.844;2023-04-21T10:56:56;11.43;;;6.90;;
49910;SDS011;35803;53.096;5.844;2023-04-21T10:59:22;12.45;;;6.80;;
49910;SDS011;35803;53.096;5.844;2023-04-21T11:01:49;10.00;;;6.82;;
49910;SDS011;35803;53.096;5.844;2023-04-21T11:04:18;11.60;;;6.68;;
49910;SDS011;35803;53.096;5.844;2023-04-21T11:07:04;12.50;;;7.25;;
49910;SDS011;35803;53.096;5.844;2023-04-21T11:09:35;11.10;;;7.10;;
49910;SDS011;35803;53.096;5.844;2023-04-21T11:12:08;9.35;;;6.82;;
49910;SDS011;35803;53.096;5.844;2023-04-21T11:14:35;9.73;;;6.85;;
49910;SDS011;35803;53.096;5.844;2023-04-21T11:17:03;11.82;;;7.20;;
49910;SDS011;35803;53.096;5.844;2023-04-21T11:19:33;11.02;;;6.85;;
49910;SDS011;35803;53.096;5.844;2023-04-21T11:21:58;8.90;;;6.68;;
49910;SDS011;35803;53.096;5.844;2023-04-21T11:24:24;11.05;;;7.10;;
49910;SDS011;35803;53.096;5.844;2023-04-21T11:26:50;11.48;;;6.90;;
49910;SDS011;35803;53.096;5.844;2023-04-21T11:29:15;11.20;;;6.90;;
49910;SDS011;35803;53.096;5.844;2023-04-21T11:31:42;12.75;;;6.68;;
49910;SDS011;35803;53.096;5.844;2023-04-21T11:34:09;12.40;;;7.53;;
49910;SDS011;35803;53.096;5.844;2023-04-21T11:36:40;10.20;;;7.20;;
49910;SDS011;35803;53.096;5.844;2023-04-21T11:39:10;9.85;;;6.50;;
49910;SDS011;35803;53.096;5.844;2023-04-21T11:41:38;9.32;;;7.00;;
49910;SDS011;35803;53.096;5.844;2023-04-21T11:44:05;12.25;;;7.15;;
49910;SDS011;35803;53.096;5.844;2023-04-21T11:46:31;11.80;;;7.03;;
49910;SDS011;35803;53.096;5.844;2023-04-21T11:51:32;8.70;;;6.25;;
49910;SDS011;35803;53.096;5.844;2023-04-21T11:53:58;11.05;;;6.32;;
49910;SDS011;35803;53.096;5.844;2023-04-21T11:56:24;8.90;;;6.85;;
49910;SDS011;35803;53.096;5.844;2023-04-21T11:58:50;9.88;;;6.65;;
49910;SDS011;35803;53.096;5.844;2023-04-21T12:01:20;9.20;;;6.88;;
49910;SDS011;35803;53.096;5.844;2023-04-21T12:03:55;12.07;;;6.90;;
49910;SDS011;35803;53.096;5.844;2023-04-21T12:06:25;10.40;;;6.15;;
49910;SDS011;35803;53.096;5.844;2023-04-21T12:08:59;12.20;;;6.50;;
49910;SDS011;35803;53.096;5.844;2023-04-21T12:13:52;7.32;;;5.70;;
49910;SDS011;35803;53.096;5.844;2023-04-21T12:16:20;7.75;;;6.25;;
49910;SDS011;35803;53.096;5.844;2023-04-21T12:18:49;10.52;;;6.20;;
49910;SDS011;35803;53.096;5.844;2023-04-21T12:21:15;9.27;;;5.53;;
49910;SDS011;35803;53.096;5.844;2023-04-21T12:23:40;8.07;;;5.63;;
49910;SDS011;35803;53.096;5.844;2023-04-21T12:26:06;8.25;;;4.97;;
49910;SDS011;35803;53.096;5.844;2023-04-21T12:28:31;8.38;;;5.47;;
49910;SDS011;35803;53.096;5.844;2023-04-21T12:30:57;8.90;;;5.93;;
49910;SDS011;35803;53.096;5.844;2023-04-21T12:33:22;7.95;;;5.53;;
49910;SDS011;35803;53.096;5.844;2023-04-21T12:35:48;8.00;;;5.70;;
49910;SDS011;35803;53.096;5.844;2023-04-21T12:38:14;8.80;;;5.47;;
49910;SDS011;35803;53.096;5.844;2023-04-21T12:40:39;9.57;;;5.80;;
49910;SDS011;35803;53.096;5.844;2023-04-21T12:43:05;8.32;;;5.22;;
49910;SDS011;35803;53.096;5.844;2023-04-21T12:45:36;8.98;;;5.07;;
49910;SDS011;35803;53.096;5.844;2023-04-21T12:48:01;6.20;;;4.50;;
49910;SDS011;35803;53.096;5.844;2023-04-21T12:50:29;7.68;;;5.20;;
49910;SDS011;35803;53.096;5.844;2023-04-21T12:52:54;6.28;;;4.82;;
49910;SDS011;35803;53.096;5.844;2023-04-21T12:55:20;8.40;;;5.10;;
49910;SDS011;35803;53.096;5.844;2023-04-21T12:57:47;10.07;;;4.90;;
49910;SDS011;35803;53.096;5.844;2023-04-21T13:00:13;7.80;;;5.07;;
49910;SDS011;35803;53.096;5.844;2023-04-21T13:02:40;6.28;;;4.85;;
49910;SDS011;35803;53.096;5.844;2023-04-21T13:05:09;6.70;;;4.40;;
49910;SDS011;35803;53.096;5.844;2023-04-21T13:07:37;6.32;;;4.40;;
49910;SDS011;35803;53.096;5.844;2023-04-21T13:10:05;7.70;;;4.25;;
49910;SDS011;35803;53.096;5.844;2023-04-21T13:12:34;8.93;;;4.82;;
49910;SDS011;35803;53.096;5.844;2023-04-21T13:14:59;5.38;;;4.50;;
49910;SDS011;35803;53.096;5.844;2023-04-21T13:17:25;5.47;;;4.28;;
49910;SDS011;35803;53.096;5.844;2023-04-21T13:19:51;7.70;;;4.20;;
49910;SDS011;35803;53.096;5.844;2023-04-21T13:22:16;6.03;;;3.88;;
49910;SDS011;35803;53.096;5.844;2023-04-21T13:24:42;6.72;;;4.10;;
49910;SDS011;35803;53.096;5.844;2023-04-21T13:27:07;6.00;;;4.20;;
49910;SDS011;35803;53.096;5.844;2023-04-21T13:29:33;7.53;;;4.32;;
49910;SDS011;35803;53.096;5.844;2023-04-21T13:32:00;7.70;;;5.30;;
49910;SDS011;35803;53.096;5.844;2023-04-21T13:34:27;12.48;;;6.88;;
49910;SDS011;35803;53.096;5.844;2023-04-21T13:36:53;11.65;;;6.78;;
49910;SDS011;35803;53.096;5.844;2023-04-21T13:39:18;10.57;;;7.45;;
49910;SDS011;35803;53.096;5.844;2023-04-21T13:41:44;12.00;;;7.53;;
49910;SDS011;35803;53.096;5.844;2023-04-21T13:44:12;12.30;;;7.53;;
49910;SDS011;35803;53.096;5.844;2023-04-21T13:46:38;10.70;;;7.38;;
49910;SDS011;35803;53.096;5.844;2023-04-21T13:49:04;12.60;;;7.68;;
49910;SDS011;35803;53.096;5.844;2023-04-21T13:51:32;10.93;;;8.07;;
49910;SDS011;35803;53.096;5.844;2023-04-21T13:53:58;12.85;;;8.05;;
49910;SDS011;35803;53.096;5.844;2023-04-21T13:56:24;12.57;;;7.88;;
49910;SDS011;35803;53.096;5.844;2023-04-21T13:58:49;10.95;;;7.88;;
49910;SDS011;35803;53.096;5.844;2023-04-21T14:01:15;12.23;;;7.80;;
49910;SDS011;35803;53.096;5.844;2023-04-21T14:03:41;16.58;;;8.82;;
49910;SDS011;35803;53.096;5.844;2023-04-21T14:06:09;11.93;;;8.38;;
49910;SDS011;35803;53.096;5.844;2023-04-21T14:08:35;12.23;;;8.68;;
49910;SDS011;35803;53.096;5.844;2023-04-21T14:11:01;13.23;;;9.32;;
49910;SDS011;35803;53.096;5.844;2023-04-21T14:13:27;12.18;;;8.77;;
49910;SDS011;35803;53.096;5.844;2023-04-21T14:15:55;13.18;;;8.93;;
49910;SDS011;35803;53.096;5.844;2023-04-21T14:18:21;17.40;;;9.00;;
49910;SDS011;35803;53.096;5.844;2023-04-21T14:20:49;13.25;;;8.65;;
49910;SDS011;35803;53.096;5.844;2023-04-21T14:23:15;13.70;;;8.85;;
49910;SDS011;35803;53.096;5.844;2023-04-21T14:25:40;12.30;;;8.50;;
49910;SDS011;35803;53.096;5.844;2023-04-21T14:28:06;12.38;;;8.23;;
49910;SDS011;35803;53.096;5.844;2023-04-21T14:30:33;12.68;;;9.13;;
49910;SDS011;35803;53.096;5.844;2023-04-21T14:33:00;14.63;;;9.68;;
49910;SDS011;35803;53.096;5.844;2023-04-21T14:35:29;14.73;;;10.73;;
49910;SDS011;35803;53.096;5.844;2023-04-21T14:37:56;13.75;;;9.88;;
49910;SDS011;35803;53.096;5.844;2023-04-21T14:40:22;14.05;;;9.80;;
49910;SDS011;35803;53.096;5.844;2023-04-21T14:42:48;15.35;;;10.23;;
49910;SDS011;35803;53.096;5.844;2023-04-21T14:45:14;13.88;;;10.13;;
49910;SDS011;35803;53.096;5.844;2023-04-21T14:47:40;14.65;;;9.30;;